Wind EuroAirport

Messzeit Windrichtung Windgeschwindigkeit [Knoten] Rückenwind Nordpiste [Knoten] METAR
2018-12-15 21:00 O 100° 10 - LFSB 152000Z 10010KT 9999 FEW026 BKN130 M00/M05 Q1019 NOSIG
2018-12-15 20:30 O 100° 11 - LFSB 151930Z 10011KT 9999 FEW026 BKN140 M00/M05 Q1019 NOSIG
2018-12-15 20:00 O 100° 10 - LFSB 151900Z 10010KT 9999 FEW026 BKN150 BKN200 M00/M05 Q1019 NOSIG
2018-12-15 19:30 O 100° 10 - LFSB 151830Z 10010KT 9999 FEW026 BKN160 BKN210 M00/M05 Q1019 NOSIG
2018-12-15 19:00 O 100° 10 - LFSB 151800Z 10010KT 9999 FEW026 SCT230 M00/M05 Q1020 NOSIG
2018-12-15 18:30 O 100° 10 - LFSB 151730Z 10010KT 9999 FEW026 SCT230 M00/M05 Q1020 NOSIG
2018-12-15 18:00 O 100° 10 - LFSB 151700Z 10010KT 9999 SCT026 M00/M05 Q1021 NOSIG
2018-12-15 17:30 O 110°
(70°–130°)
9 - LFSB 151630Z 11009KT 070V130 9999 BKN026 M00/M05 Q1021 NOSIG
2018-12-15 17:00 O 90° 7 - LFSB 151600Z 09007KT 9999 BKN026 00/M05 Q1021 NOSIG
2018-12-15 16:30 O 100° 9 - LFSB 151530Z 10009KT 9999 BKN027 00/M05 Q1021 NOSIG
2018-12-15 16:00 O 100° 8 - LFSB 151500Z 10008KT 9999 SCT027 SCT230 00/M05 Q1021 NOSIG
2018-12-15 15:30 O 110° 7 - LFSB 151430Z 11007KT 9999 SCT027 00/M05 Q1022 NOSIG
2018-12-15 15:00 O 100°
(70°–130°)
10 - LFSB 151400Z 10010KT 070V130 9999 BKN027 01/M05 Q1022 NOSIG
2018-12-15 14:30 O 80°
(50°–110°)
8 0–3 LFSB 151330Z 08008KT 050V110 9999 BKN027 01/M05 Q1022 NOSIG
2018-12-15 14:00 O 90°
(60°–120°)
7 0–1 LFSB 151300Z 09007KT 060V120 9999 BKN027 01/M05 Q1022 NOSIG
2018-12-15 13:30 SO 140° 10 - LFSB 151230Z 14010KT 9999 BKN026 01/M05 Q1022 NOSIG
2018-12-15 13:00 SO 120°
(60°–150°)
8 0–1 LFSB 151200Z 12008KT 060V150 9999 BKN026 01/M05 Q1022 NOSIG
2018-12-15 12:30 SO 120°
(90°–150°)
10 - LFSB 151130Z 12010KT 090V150 9999 BKN027 01/M05 Q1022 NOSIG
2018-12-15 12:00 SO 120° 10 - LFSB 151100Z 12010KT 9999 BKN027 01/M05 Q1023 NOSIG
2018-12-15 11:30 O 100°
(70°–130°)
8 - LFSB 151030Z 10008KT 070V130 9999 OVC028 01/M05 Q1023 NOSIG
2018-12-15 11:00 O 70°
(50°–120°)
5 0–2 LFSB 151000Z 07005KT 050V120 9999 OVC027 01/M04 Q1024 NOSIG
2018-12-15 10:30 O 70°
(40°–110°)
5 0–3 LFSB 150930Z 07005KT 040V110 9999 OVC028 00/M05 Q1024 NOSIG
2018-12-15 10:00 NO 50°
(10°–100°)
5 0–4 LFSB 150900Z 05005KT 010V100 9999 OVC029 00/M05 Q1024 NOSIG
2018-12-15 09:30 NO 50°
(10°–110°)
3 0–3 LFSB 150830Z 05003KT 010V110 9999 OVC029 00/M05 Q1023 NOSIG
2018-12-15 09:00 NO 50°
(10°–70°)
4 0–3 LFSB 150800Z 05004KT 010V070 9999 OVC029 M00/M05 Q1023 NOSIG
2018-12-15 08:30 O 70°
(40°–110°)
4 0–2 LFSB 150730Z 07004KT 040V110 9999 OVC028 M00/M05 Q1023 NOSIG
2018-12-15 08:00 NO 60° 5 1 LFSB 150700Z 06005KT 9999 OVC027 M00/M05 Q1023 NOSIG
2018-12-15 07:30 O 90° 6 - LFSB 150630Z 09006KT 9999 OVC026 M00/M05 Q1023 NOSIG
2018-12-15 07:00 O 100°
(60°–130°)
3 0–1 LFSB 150600Z 10003KT 060V130 9999 FEW015 OVC025 M00/M05 Q1023 NOSIG
2018-12-15 06:30 O 110°
(80°–140°)
4 - LFSB 150530Z 11004KT 080V140 9999 FEW015 OVC025 00/M05 Q1023 NOSIG
2018-12-15 06:00 - 2 - LFSB 150500Z VRB02KT 9999 FEW020 OVC025 M00/M03 Q1023 NOSIG
2018-12-15 05:30 NO 30° 3 2 LFSB 150430Z 03003KT 9000 FEW020 OVC025 M00/M03 Q1023 NOSIG
2018-12-15 05:00 - 2 - LFSB 150400Z VRB02KT 9000 FEW020 OVC026 M00/M03 Q1023 NOSIG
2018-12-15 04:30 var 360° 2 2 LFSB 150330Z 36002KT 9000 FEW020 OVC026 M01/M03 Q1023 NOSIG
2018-12-15 04:00 NW 320° 3 3 LFSB 150300Z AUTO 32003KT 9999 OVC026 M00/M03 Q1023 TEMPO 4000 BR BKN007
2018-12-15 03:30 NW 330° 4 4 LFSB 150230Z AUTO 33004KT 9999 OVC027 M00/M03 Q1023 TEMPO 4000 BR BKN007
2018-12-15 03:00 NW 320° 4 4 LFSB 150200Z AUTO 32004KT 9000 OVC027 M00/M02 Q1023 TEMPO 4000 BR BKN007
2018-12-15 02:30 NW 310° 4 3 LFSB 150130Z AUTO 31004KT 9999 OVC027 M00/M02 Q1023 TEMPO 4000 BR BKN007
2018-12-15 02:00 - 0 - LFSB 150100Z AUTO 00000KT 9999 OVC027 M00/M02 Q1023 TEMPO 4000 BR BKN007
2018-12-15 01:30 - 2 - LFSB 150030Z AUTO VRB02KT 9000 OVC027 M00/M02 Q1022 TEMPO 4000 BR BKN007
2018-12-15 01:00 NW 330° 3 3 LFSB 150000Z AUTO 33003KT 8000 OVC027 M00/M02 Q1022 NOSIG
2018-12-15 00:30 NW 300° 3 2 LFSB 142330Z 30003KT 8000 FEW020 OVC025 M00/M02 Q1022 NOSIG
2018-12-15 00:00 - 2 - LFSB 142300Z VRB02KT 9000 FEW020 OVC025 00/M02 Q1022 NOSIG
2018-12-14 23:30 - 1 - LFSB 142230Z VRB01KT 9000 FEW020 OVC030 M00/M02 Q1022 NOSIG
2018-12-14 23:00 - 0 - LFSB 142200Z 00000KT 9000 FEW020 OVC030 M00/M02 Q1022 NOSIG
2018-12-14 22:30 - 2 - LFSB 142130Z VRB02KT 9000 FEW020 OVC030 00/M03 Q1022 NOSIG
2018-12-14 22:00 N 340° 3 3 LFSB 142100Z 34003KT 9999 FEW020 OVC030 M00/M03 Q1022 NOSIG